Time;durP1;ratioP1;P1;durP2;ratioP2;P2;SDS_P1;SDS_P2;PMS_P1;PMS_P2;Temp;Humidity;BMP_temperature;BMP_pressure;BME280_temperature;BME280_humidity;BME280_pressure;Samples;Min_cycle;Max_cycle;Signal;HPM_P1;HPM_P2
2021/10/05 00:00:24;;;;;;;19.58;12.70;;;;;;;;;;6206468;23;20039;-73
2021/10/05 00:03:28;;;;;;;25.50;12.73;;;;;;;;;;6224776;23;20019;-73
2021/10/05 00:06:33;;;;;;;20.05;12.50;;;;;;;;;;6224567;23;20024;-72
2021/10/05 00:09:37;;;;;;;23.55;12.52;;;;;;;;;;6224529;23;20611;-73
2021/10/05 00:12:41;;;;;;;23.05;12.57;;;;;;;;;;6224633;23;20020;-72
2021/10/05 00:15:47;;;;;;;20.23;12.52;;;;;;;;;;6224781;23;20019;-72
2021/10/05 00:18:51;;;;;;;21.35;12.60;;;;;;;;;;6224703;23;20176;-72
2021/10/05 00:21:58;;;;;;;22.15;11.90;;;;;;;;;;6224476;23;20020;-72
2021/10/05 00:25:03;;;;;;;21.02;12.35;;;;;;;;;;6224495;23;20020;-72
2021/10/05 00:28:07;;;;;;;21.50;12.88;;;;;;;;;;6224467;23;20028;-72
2021/10/05 00:31:11;;;;;;;19.75;12.57;;;;;;;;;;6224327;23;20020;-72
2021/10/05 00:34:15;;;;;;;21.55;13.40;;;;;;;;;;6224214;23;20074;-72
2021/10/05 00:37:20;;;;;;;17.08;12.57;;;;;;;;;;6224279;23;20028;-72
2021/10/05 00:40:24;;;;;;;21.65;13.63;;;;;;;;;;6205590;23;20040;-72
2021/10/05 00:43:29;;;;;;;22.15;12.90;;;;;;;;;;6224043;23;20011;-71
2021/10/05 00:46:34;;;;;;;21.73;12.77;;;;;;;;;;6224115;23;20019;-72
2021/10/05 00:49:40;;;;;;;22.05;12.50;;;;;;;;;;6199725;23;20015;-71
2021/10/05 00:52:44;;;;;;;18.10;12.52;;;;;;;;;;6223896;23;20019;-72
2021/10/05 00:55:49;;;;;;;21.15;12.48;;;;;;;;;;6224000;23;20020;-73
2021/10/05 00:58:54;;;;;;;20.67;12.70;;;;;;;;;;6223747;23;20020;-72
2021/10/05 01:01:58;;;;;;;23.15;12.07;;;;;;;;;;6223873;23;20439;-72
2021/10/05 01:05:03;;;;;;;18.20;11.10;;;;;;;;;;6223851;23;20024;-72
2021/10/05 01:08:07;;;;;;;19.00;10.35;;;;;;;;;;6223817;23;20048;-71
2021/10/05 01:11:12;;;;;;;15.48;10.77;;;;;;;;;;6223722;23;20321;-72
2021/10/05 01:14:17;;;;;;;13.55;10.07;;;;;;;;;;6223966;23;20023;-72
2021/10/05 01:17:22;;;;;;;17.27;10.50;;;;;;;;;;6223851;23;20341;-73
2021/10/05 01:20:26;;;;;;;18.55;11.25;;;;;;;;;;6223731;23;20023;-73
2021/10/05 01:23:33;;;;;;;19.30;10.55;;;;;;;;;;6223771;23;20015;-73
2021/10/05 01:26:37;;;;;;;16.90;9.65;;;;;;;;;;6223514;23;20020;-72
2021/10/05 01:29:42;;;;;;;14.55;9.80;;;;;;;;;;6223538;23;20016;-73
2021/10/05 01:32:46;;;;;;;15.02;9.40;;;;;;;;;;6223541;23;20009;-72
2021/10/05 01:35:51;;;;;;;14.90;9.63;;;;;;;;;;6223758;23;20016;-72
2021/10/05 01:38:55;;;;;;;16.80;9.57;;;;;;;;;;6223566;23;20016;-72
2021/10/05 01:42:17;;;;;;;15.23;9.85;;;;;;;;;;6223787;23;20197;-72
2021/10/05 01:45:22;;;;;;;13.07;9.10;;;;;;;;;;6223793;23;20022;-73
2021/10/05 01:48:26;;;;;;;16.33;9.57;;;;;;;;;;6222494;23;20049;-73
2021/10/05 01:51:30;;;;;;;12.57;9.35;;;;;;;;;;6215071;23;20535;-72
2021/10/05 01:54:35;;;;;;;22.23;10.57;;;;;;;;;;6223442;23;20324;-71
2021/10/05 01:57:40;;;;;;;19.30;10.88;;;;;;;;;;6223303;23;20023;-72
2021/10/05 02:00:44;;;;;;;16.95;11.27;;;;;;;;;;6223120;23;20012;-72
2021/10/05 02:03:48;;;;;;;20.45;11.27;;;;;;;;;;6223314;23;20023;-71
2021/10/05 02:06:53;;;;;;;20.52;11.55;;;;;;;;;;6223211;23;20016;-71
2021/10/05 02:09:57;;;;;;;20.75;10.55;;;;;;;;;;6223223;23;20470;-72
2021/10/05 02:13:02;;;;;;;16.75;11.07;;;;;;;;;;6223370;23;20015;-72
2021/10/05 02:16:06;;;;;;;16.30;10.15;;;;;;;;;;6223430;23;20024;-74
2021/10/05 02:19:10;;;;;;;14.30;9.63;;;;;;;;;;6204900;23;20023;-72
2021/10/05 02:22:15;;;;;;;16.00;9.32;;;;;;;;;;6205160;23;20008;-72
2021/10/05 02:25:19;;;;;;;17.27;9.93;;;;;;;;;;6223436;23;20017;-72
2021/10/05 02:28:23;;;;;;;15.43;9.95;;;;;;;;;;6223260;23;20028;-71
2021/10/05 02:31:28;;;;;;;23.52;10.23;;;;;;;;;;6223426;23;20019;-72
2021/10/05 02:34:32;;;;;;;15.75;10.50;;;;;;;;;;6223382;23;20019;-72
2021/10/05 02:37:37;;;;;;;16.67;8.93;;;;;;;;;;6222953;23;20016;-72
2021/10/05 02:40:41;;;;;;;13.68;8.95;;;;;;;;;;6223170;23;20017;-72
2021/10/05 02:43:45;;;;;;;13.30;8.38;;;;;;;;;;6205006;23;20039;-72
2021/10/05 02:46:50;;;;;;;16.25;8.00;;;;;;;;;;6223216;23;20020;-72
2021/10/05 02:49:54;;;;;;;13.38;8.35;;;;;;;;;;6215817;23;20445;-73
2021/10/05 02:52:58;;;;;;;11.77;7.97;;;;;;;;;;6205273;23;20013;-70
2021/10/05 02:56:02;;;;;;;14.13;8.85;;;;;;;;;;6223386;23;20016;-71
2021/10/05 02:59:07;;;;;;;13.45;8.25;;;;;;;;;;6223179;23;20012;-72
2021/10/05 03:02:11;;;;;;;11.98;7.60;;;;;;;;;;6223151;23;20013;-72
2021/10/05 03:05:15;;;;;;;12.50;7.72;;;;;;;;;;6223302;23;20622;-72
2021/10/05 03:08:19;;;;;;;14.55;7.97;;;;;;;;;;6223112;23;20024;-71
2021/10/05 03:11:24;;;;;;;10.25;7.70;;;;;;;;;;6204721;23;20019;-73
2021/10/05 03:14:28;;;;;;;15.02;7.43;;;;;;;;;;6223273;23;20024;-72
2021/10/05 03:17:33;;;;;;;12.40;7.28;;;;;;;;;;6223108;23;20019;-73
2021/10/05 03:20:37;;;;;;;12.00;8.07;;;;;;;;;;6204533;23;20014;-71
2021/10/05 03:23:41;;;;;;;10.57;7.40;;;;;;;;;;6222790;23;20476;-71
2021/10/05 03:26:46;;;;;;;16.77;8.85;;;;;;;;;;6222970;23;20012;-72
2021/10/05 03:29:51;;;;;;;25.40;10.68;;;;;;;;;;6204539;23;20440;-71
2021/10/05 03:32:55;;;;;;;15.77;10.45;;;;;;;;;;6222997;23;20019;-72
2021/10/05 03:35:59;;;;;;;16.73;10.82;;;;;;;;;;6223134;23;20023;-73
2021/10/05 03:39:03;;;;;;;24.85;10.20;;;;;;;;;;6223147;23;20020;-72
2021/10/05 03:42:07;;;;;;;24.92;10.85;;;;;;;;;;6223116;23;20025;-72
2021/10/05 03:45:12;;;;;;;12.90;9.50;;;;;;;;;;6223116;23;20015;-72
2021/10/05 03:48:17;;;;;;;16.42;9.30;;;;;;;;;;6222534;23;20449;-72
2021/10/05 03:51:21;;;;;;;12.43;9.05;;;;;;;;;;6216931;23;20024;-72
2021/10/05 03:54:26;;;;;;;16.13;10.18;;;;;;;;;;6206349;23;20017;-72
2021/10/05 03:57:31;;;;;;;14.38;9.57;;;;;;;;;;6206757;23;20028;-73
2021/10/05 04:00:35;;;;;;;17.17;10.45;;;;;;;;;;6224535;23;20008;-73
2021/10/05 04:03:41;;;;;;;15.63;9.63;;;;;;;;;;6224958;23;20023;-71
2021/10/05 04:06:45;;;;;;;14.07;9.85;;;;;;;;;;6224529;23;20015;-72
2021/10/05 04:09:50;;;;;;;17.55;10.55;;;;;;;;;;6224405;23;20029;-72
2021/10/05 04:12:54;;;;;;;18.60;10.63;;;;;;;;;;6224688;23;20019;-72
2021/10/05 04:15:58;;;;;;;20.65;11.48;;;;;;;;;;6224473;23;20020;-73
2021/10/05 04:19:03;;;;;;;22.25;12.05;;;;;;;;;;6224317;23;20011;-73
2021/10/05 04:22:08;;;;;;;20.98;12.10;;;;;;;;;;6224247;23;20023;-74
2021/10/05 04:25:12;;;;;;;33.92;14.70;;;;;;;;;;6224248;23;20020;-72
2021/10/05 04:28:16;;;;;;;27.80;14.63;;;;;;;;;;6224099;23;20072;-73
2021/10/05 04:31:21;;;;;;;22.98;14.48;;;;;;;;;;6205941;23;20035;-74
2021/10/05 04:34:26;;;;;;;21.70;14.88;;;;;;;;;;6224155;23;20019;-72
2021/10/05 04:37:30;;;;;;;28.70;14.43;;;;;;;;;;6224200;23;20016;-73
2021/10/05 04:40:34;;;;;;;22.20;12.63;;;;;;;;;;6224176;23;20460;-73
2021/10/05 04:43:39;;;;;;;21.52;12.63;;;;;;;;;;6224127;23;20020;-73
2021/10/05 04:46:43;;;;;;;28.00;13.55;;;;;;;;;;6224243;23;20349;-72
2021/10/05 04:49:48;;;;;;;25.48;13.82;;;;;;;;;;6216206;23;20479;-72
2021/10/05 04:52:52;;;;;;;24.42;13.55;;;;;;;;;;6223992;23;20023;-72
2021/10/05 04:55:56;;;;;;;22.90;14.30;;;;;;;;;;6224001;23;20016;-72
2021/10/05 04:59:00;;;;;;;23.85;14.23;;;;;;;;;;6223758;23;20197;-73
2021/10/05 05:02:05;;;;;;;30.45;14.88;;;;;;;;;;6224050;23;20024;-73
2021/10/05 05:05:09;;;;;;;26.95;13.75;;;;;;;;;;6223822;23;20035;-71
2021/10/05 05:08:17;;;;;;;23.20;12.73;;;;;;;;;;6223722;23;20027;-71
2021/10/05 05:11:21;;;;;;;19.73;12.40;;;;;;;;;;6223611;23;20039;-71
2021/10/05 05:14:25;;;;;;;21.42;12.88;;;;;;;;;;6205388;23;20024;-72
2021/10/05 05:17:30;;;;;;;20.60;13.00;;;;;;;;;;6223708;23;20019;-71
2021/10/05 05:20:34;;;;;;;21.35;13.57;;;;;;;;;;6204681;23;20019;-72
2021/10/05 05:23:39;;;;;;;19.88;13.25;;;;;;;;;;6223404;23;20019;-72
2021/10/05 05:26:43;;;;;;;20.13;13.05;;;;;;;;;;6223503;23;20020;-72
2021/10/05 05:29:47;;;;;;;20.00;13.40;;;;;;;;;;6223470;23;20030;-73
2021/10/05 05:32:51;;;;;;;18.60;11.90;;;;;;;;;;6223530;23;20024;-72
2021/10/05 05:35:56;;;;;;;15.50;11.07;;;;;;;;;;6223423;23;20463;-72
2021/10/05 05:39:01;;;;;;;20.95;11.95;;;;;;;;;;6223100;23;20012;-72
2021/10/05 05:42:09;;;;;;;15.98;10.90;;;;;;;;;;6223475;23;20023;-72
2021/10/05 05:45:13;;;;;;;18.17;10.77;;;;;;;;;;6223315;23;20049;-73
2021/10/05 05:48:17;;;;;;;16.92;10.18;;;;;;;;;;6221914;23;20032;-71
2021/10/05 05:51:22;;;;;;;15.50;9.90;;;;;;;;;;6215623;23;20032;-72
2021/10/05 05:54:26;;;;;;;15.93;9.90;;;;;;;;;;6223226;23;20009;-73
2021/10/05 05:57:31;;;;;;;13.43;8.35;;;;;;;;;;6223196;23;20012;-73
2021/10/05 06:00:36;;;;;;;11.27;7.72;;;;;;;;;;6223217;23;20013;-73
2021/10/05 06:03:40;;;;;;;13.70;8.30;;;;;;;;;;6223311;23;20340;-74
2021/10/05 06:06:45;;;;;;;18.90;8.52;;;;;;;;;;6223151;23;20013;-72
2021/10/05 06:09:49;;;;;;;12.98;7.93;;;;;;;;;;6223039;23;20020;-74
2021/10/05 06:12:54;;;;;;;11.30;7.43;;;;;;;;;;6223018;23;20012;-72
2021/10/05 06:15:59;;;;;;;13.75;7.60;;;;;;;;;;6223464;23;20020;-72
2021/10/05 06:19:06;;;;;;;10.98;7.55;;;;;;;;;;6223124;23;20019;-72
2021/10/05 06:22:10;;;;;;;11.25;6.75;;;;;;;;;;6223128;23;20019;-73
2021/10/05 06:25:19;;;;;;;9.50;6.35;;;;;;;;;;6223338;23;20013;-72
2021/10/05 06:28:23;;;;;;;10.13;6.82;;;;;;;;;;6222838;23;20330;-73
2021/10/05 06:31:28;;;;;;;10.90;6.47;;;;;;;;;;6205148;23;20009;-71
2021/10/05 06:34:32;;;;;;;10.25;6.50;;;;;;;;;;6222868;23;20021;-71
2021/10/05 06:37:38;;;;;;;9.88;5.90;;;;;;;;;;6222898;23;20016;-71
2021/10/05 06:40:42;;;;;;;8.73;5.70;;;;;;;;;;6222700;23;20013;-70
2021/10/05 06:43:47;;;;;;;9.73;5.53;;;;;;;;;;6222898;23;20017;-70
2021/10/05 06:46:51;;;;;;;12.05;5.80;;;;;;;;;;6222921;23;20004;-72
2021/10/05 06:49:55;;;;;;;10.18;5.53;;;;;;;;;;6214001;23;20024;-71
2021/10/05 06:53:00;;;;;;;14.32;6.22;;;;;;;;;;6223177;23;20291;-72
2021/10/05 06:56:04;;;;;;;10.68;5.40;;;;;;;;;;6204740;23;20023;-72
2021/10/05 06:59:09;;;;;;;7.88;5.45;;;;;;;;;;6222686;23;20015;-72
2021/10/05 07:02:13;;;;;;;9.23;5.20;;;;;;;;;;6223029;23;20012;-73
2021/10/05 07:05:19;;;;;;;10.18;5.63;;;;;;;;;;6222877;23;20012;-72
2021/10/05 07:08:23;;;;;;;10.43;5.70;;;;;;;;;;6187160;23;20444;-72
2021/10/05 07:11:28;;;;;;;6.65;5.13;;;;;;;;;;6223051;23;20322;-74
2021/10/05 07:14:33;;;;;;;7.72;5.00;;;;;;;;;;6222874;23;20012;-71
2021/10/05 07:17:37;;;;;;;10.63;5.03;;;;;;;;;;6222985;23;20017;-72
2021/10/05 07:20:42;;;;;;;6.80;5.05;;;;;;;;;;6222741;23;20018;-73
2021/10/05 07:23:46;;;;;;;8.48;5.65;;;;;;;;;;6205276;23;20017;-73
2021/10/05 07:26:50;;;;;;;11.00;6.78;;;;;;;;;;6224673;23;20008;-71
2021/10/05 07:29:55;;;;;;;7.15;5.80;;;;;;;;;;6224450;23;20318;-73
2021/10/05 07:33:06;;;;;;;8.77;5.65;;;;;;;;;;6224711;23;20009;-73
2021/10/05 07:36:11;;;;;;;11.27;5.60;;;;;;;;;;6224656;23;20008;-74
2021/10/05 07:39:15;;;;;;;10.20;5.25;;;;;;;;;;6224502;23;20005;-73
2021/10/05 07:42:22;;;;;;;7.90;5.10;;;;;;;;;;6224810;23;20340;-71
2021/10/05 07:45:27;;;;;;;7.80;4.95;;;;;;;;;;6206477;23;20012;-73
2021/10/05 07:48:31;;;;;;;9.07;5.30;;;;;;;;;;6220435;23;20024;-72
2021/10/05 07:51:36;;;;;;;8.05;5.70;;;;;;;;;;6215957;23;20314;-73
2021/10/05 07:54:40;;;;;;;8.68;4.85;;;;;;;;;;6224911;23;20012;-72
2021/10/05 07:57:45;;;;;;;7.93;5.15;;;;;;;;;;6224799;23;20012;-72
2021/10/05 08:00:49;;;;;;;11.73;5.60;;;;;;;;;;6224673;23;20317;-72
2021/10/05 08:03:53;;;;;;;10.93;5.47;;;;;;;;;;6206120;23;20013;-72
2021/10/05 08:06:58;;;;;;;15.10;6.05;;;;;;;;;;6224372;23;20321;-73
2021/10/05 08:10:02;;;;;;;11.85;5.72;;;;;;;;;;6224403;23;20025;-74
2021/10/05 08:13:07;;;;;;;13.20;5.95;;;;;;;;;;6224315;23;20364;-72
2021/10/05 08:16:11;;;;;;;13.88;7.57;;;;;;;;;;6224980;23;20348;-73
2021/10/05 08:19:15;;;;;;;10.40;7.38;;;;;;;;;;6224335;23;20008;-74
2021/10/05 08:22:20;;;;;;;10.48;6.40;;;;;;;;;;6224633;23;20455;-73
2021/10/05 08:25:25;;;;;;;12.10;7.00;;;;;;;;;;6224467;23;20544;-73
2021/10/05 08:28:29;;;;;;;8.38;6.40;;;;;;;;;;6224342;23;20024;-73
2021/10/05 08:31:34;;;;;;;9.02;6.13;;;;;;;;;;6205765;23;20009;-74
2021/10/05 08:34:38;;;;;;;12.43;6.05;;;;;;;;;;6206016;23;20017;-73
2021/10/05 08:37:42;;;;;;;8.65;5.82;;;;;;;;;;6224194;23;20013;-74
2021/10/05 08:40:47;;;;;;;8.52;5.82;;;;;;;;;;6224017;23;20591;-73
2021/10/05 08:43:52;;;;;;;9.27;6.13;;;;;;;;;;6223870;23;20012;-72
2021/10/05 08:46:56;;;;;;;13.50;7.78;;;;;;;;;;6224176;23;20016;-72
2021/10/05 08:50:01;;;;;;;12.15;7.88;;;;;;;;;;6222167;23;20033;-74
2021/10/05 08:53:05;;;;;;;18.60;9.45;;;;;;;;;;6224354;23;20012;-72
2021/10/05 08:56:10;;;;;;;17.40;9.70;;;;;;;;;;6205996;23;20008;-70
2021/10/05 08:59:14;;;;;;;12.95;8.13;;;;;;;;;;6223937;23;20027;-72
2021/10/05 09:02:19;;;;;;;13.80;8.30;;;;;;;;;;6224224;23;20024;-73
2021/10/05 09:05:24;;;;;;;19.85;8.32;;;;;;;;;;6224689;23;20011;-72
2021/10/05 09:08:31;;;;;;;13.32;8.10;;;;;;;;;;6205332;23;20027;-73
2021/10/05 09:11:43;;;;;;;13.00;8.48;;;;;;;;;;6223923;23;20446;-73
2021/10/05 09:14:48;;;;;;;13.52;7.40;;;;;;;;;;6224040;23;20016;-73
2021/10/05 09:17:57;;;;;;;9.43;6.95;;;;;;;;;;6224043;23;20019;-72
2021/10/05 09:21:01;;;;;;;11.48;7.05;;;;;;;;;;6223959;23;20012;-71
2021/10/05 09:24:08;;;;;;;13.00;6.95;;;;;;;;;;6223915;23;20437;-72
2021/10/05 09:27:12;;;;;;;12.80;6.88;;;;;;;;;;6205530;23;20005;-75
2021/10/05 09:30:18;;;;;;;13.32;7.70;;;;;;;;;;6223875;23;20020;-72
2021/10/05 09:33:22;;;;;;;12.02;6.43;;;;;;;;;;6223948;23;20019;-73
2021/10/05 09:36:27;;;;;;;8.30;6.03;;;;;;;;;;6223701;23;20017;-72
2021/10/05 09:39:57;;;;;;;6.72;5.85;;;;;;;;;;6223581;23;20108;-72
2021/10/05 09:43:02;;;;;;;13.00;6.90;;;;;;;;;;6207556;23;20444;-71
2021/10/05 09:46:13;;;;;;;12.65;6.68;;;;;;;;;;6223567;23;20068;-71
2021/10/05 09:49:18;;;;;;;11.88;6.00;;;;;;;;;;6215506;23;20025;-73
2021/10/05 09:52:24;;;;;;;9.43;6.32;;;;;;;;;;6223419;23;20020;-72
2021/10/05 09:55:29;;;;;;;12.95;7.13;;;;;;;;;;6223491;23;20012;-73
2021/10/05 09:58:34;;;;;;;10.25;6.15;;;;;;;;;;6223252;23;20015;-72
2021/10/05 10:01:39;;;;;;;10.93;6.93;;;;;;;;;;6223536;23;20372;-72
2021/10/05 10:04:43;;;;;;;11.85;7.55;;;;;;;;;;6223683;23;20013;-72
2021/10/05 10:07:49;;;;;;;8.25;6.15;;;;;;;;;;6223392;23;20471;-73
2021/10/05 10:10:54;;;;;;;10.93;6.90;;;;;;;;;;6223660;23;20016;-72
2021/10/05 10:13:59;;;;;;;14.15;6.75;;;;;;;;;;6223720;23;20020;-74
2021/10/05 10:17:04;;;;;;;10.95;6.45;;;;;;;;;;6223564;23;20020;-73
2021/10/05 10:20:19;;;;;;;14.20;8.00;;;;;;;;;;6223391;23;20016;-73
2021/10/05 10:23:25;;;;;;;7.05;5.00;;;;;;;;;;6205097;23;20306;-72
2021/10/05 10:26:29;;;;;;;13.80;6.90;;;;;;;;;;6223176;23;20318;-72
2021/10/05 10:29:33;;;;;;;13.65;8.07;;;;;;;;;;6204434;23;20017;-74
2021/10/05 10:32:43;;;;;;;11.82;6.47;;;;;;;;;;6222935;23;20092;-71
2021/10/05 10:35:48;;;;;;;12.98;6.32;;;;;;;;;;6223323;23;20016;-72
2021/10/05 10:39:02;;;;;;;14.73;6.10;;;;;;;;;;6223323;23;20032;-73
2021/10/05 10:42:07;;;;;;;10.10;6.03;;;;;;;;;;6223337;23;20452;-72
2021/10/05 10:45:11;;;;;;;7.25;5.63;;;;;;;;;;6223052;23;20019;-72
2021/10/05 10:48:36;;;;;;;12.55;5.88;;;;;;;;;;6219202;23;20021;-72
2021/10/05 10:51:41;;;;;;;10.15;6.03;;;;;;;;;;6214003;23;20028;-72
2021/10/05 10:54:51;;;;;;;13.63;6.20;;;;;;;;;;6223194;23;20314;-73
2021/10/05 10:57:56;;;;;;;9.68;6.05;;;;;;;;;;6223335;23;20016;-73
2021/10/05 11:01:00;;;;;;;12.70;7.18;;;;;;;;;;6206892;23;20005;-71
2021/10/05 11:04:06;;;;;;;16.63;6.40;;;;;;;;;;6224847;23;20017;-72
2021/10/05 11:07:12;;;;;;;11.15;6.18;;;;;;;;;;6225026;23;20013;-73
2021/10/05 11:10:17;;;;;;;9.77;6.68;;;;;;;;;;6225005;23;20325;-73
2021/10/05 11:13:21;;;;;;;9.60;6.35;;;;;;;;;;6225233;23;20016;-73
2021/10/05 11:16:25;;;;;;;16.00;7.57;;;;;;;;;;6206806;23;20008;-72
2021/10/05 11:19:34;;;;;;;19.10;8.05;;;;;;;;;;6225167;23;20022;-73
2021/10/05 11:22:39;;;;;;;10.73;7.68;;;;;;;;;;6225273;23;20016;-74
2021/10/05 11:25:57;;;;;;;20.20;8.00;;;;;;;;;;6206616;23;20013;-72
2021/10/05 11:29:02;;;;;;;10.82;7.20;;;;;;;;;;6225114;23;20024;-73
2021/10/05 11:32:08;;;;;;;11.73;6.80;;;;;;;;;;6225477;23;20322;-72
2021/10/05 11:35:12;;;;;;;15.90;7.20;;;;;;;;;;6206966;23;20552;-73
2021/10/05 11:38:16;;;;;;;9.52;6.70;;;;;;;;;;6207003;23;20024;-75
2021/10/05 11:41:21;;;;;;;14.00;7.03;;;;;;;;;;6225490;23;20464;-72
2021/10/05 11:44:26;;;;;;;10.45;6.60;;;;;;;;;;6225175;23;20016;-74
2021/10/05 11:47:32;;;;;;;13.25;7.70;;;;;;;;;;6223729;23;20015;-72
2021/10/05 11:50:36;;;;;;;14.30;7.18;;;;;;;;;;6220516;23;20349;-73
2021/10/05 11:53:41;;;;;;;9.95;6.53;;;;;;;;;;6224735;23;20013;-73
2021/10/05 11:56:45;;;;;;;10.38;6.35;;;;;;;;;;6224567;23;20012;-72
2021/10/05 11:59:50;;;;;;;19.08;7.80;;;;;;;;;;6224604;23;20012;-73
2021/10/05 12:02:55;;;;;;;11.43;7.55;;;;;;;;;;6188966;23;20012;-72
2021/10/05 12:05:59;;;;;;;11.55;7.93;;;;;;;;;;6224442;23;20012;-72
2021/10/05 12:09:05;;;;;;;13.75;7.53;;;;;;;;;;6224459;23;20021;-72
2021/10/05 12:12:13;;;;;;;8.43;6.03;;;;;;;;;;6189269;23;20341;-72
2021/10/05 12:15:23;;;;;;;12.18;7.68;;;;;;;;;;6224911;23;20013;-72
2021/10/05 12:18:28;;;;;;;17.63;7.40;;;;;;;;;;6224413;23;20012;-74
2021/10/05 12:21:32;;;;;;;12.73;7.15;;;;;;;;;;6224502;23;20013;-72
2021/10/05 12:24:47;;;;;;;16.48;7.45;;;;;;;;;;6224455;23;20349;-76
2021/10/05 12:27:53;;;;;;;21.20;7.40;;;;;;;;;;6204393;23;20024;-73
2021/10/05 12:30:58;;;;;;;11.10;6.78;;;;;;;;;;6206335;23;20326;-73
2021/10/05 12:34:04;;;;;;;20.48;6.97;;;;;;;;;;6224365;23;20016;-72
2021/10/05 12:37:09;;;;;;;14.20;6.28;;;;;;;;;;6224548;23;20302;-73
2021/10/05 12:40:13;;;;;;;14.23;7.22;;;;;;;;;;6224323;23;20152;-72
2021/10/05 12:43:19;;;;;;;9.90;6.13;;;;;;;;;;6224300;23;20013;-73
2021/10/05 12:46:23;;;;;;;9.30;6.57;;;;;;;;;;6206033;23;20012;-73
2021/10/05 12:49:27;;;;;;;8.40;6.55;;;;;;;;;;6223975;23;20024;-72
2021/10/05 12:52:31;;;;;;;10.38;6.30;;;;;;;;;;6224309;23;20024;-74
2021/10/05 12:55:36;;;;;;;11.32;6.35;;;;;;;;;;6206106;23;20020;-73
2021/10/05 12:58:43;;;;;;;7.70;5.53;;;;;;;;;;6205692;23;20032;-73
2021/10/05 13:01:47;;;;;;;9.30;6.25;;;;;;;;;;6224028;23;20013;-73
2021/10/05 13:04:52;;;;;;;14.13;6.55;;;;;;;;;;6205444;23;20016;-77
2021/10/05 13:07:58;;;;;;;9.52;5.93;;;;;;;;;;6205379;23;20008;-73
2021/10/05 13:11:02;;;;;;;8.63;6.00;;;;;;;;;;6223897;23;20329;-74
2021/10/05 13:14:06;;;;;;;11.95;6.22;;;;;;;;;;6205590;23;20013;-72
2021/10/05 13:17:10;;;;;;;16.15;7.30;;;;;;;;;;6223931;23;20016;-74
2021/10/05 13:20:17;;;;;;;9.25;6.20;;;;;;;;;;6223756;23;20009;-72
2021/10/05 13:23:22;;;;;;;12.10;6.60;;;;;;;;;;6223951;23;20016;-73
2021/10/05 13:26:26;;;;;;;9.32;6.10;;;;;;;;;;6205519;23;20012;-72
2021/10/05 13:29:31;;;;;;;7.15;5.45;;;;;;;;;;6223794;23;20021;-73
2021/10/05 13:32:36;;;;;;;10.70;6.43;;;;;;;;;;6223895;23;20008;-74
2021/10/05 13:35:40;;;;;;;12.27;6.75;;;;;;;;;;6223586;23;20491;-74
2021/10/05 13:38:44;;;;;;;10.18;6.85;;;;;;;;;;6204952;23;20024;-75
2021/10/05 13:41:49;;;;;;;12.35;6.72;;;;;;;;;;6204682;23;20012;-73
2021/10/05 13:44:53;;;;;;;10.65;6.15;;;;;;;;;;6222942;23;20017;-72
2021/10/05 13:47:58;;;;;;;6.82;5.70;;;;;;;;;;6217820;23;20613;-73
2021/10/05 13:51:02;;;;;;;11.73;5.57;;;;;;;;;;6216939;23;20021;-74
2021/10/05 13:54:06;;;;;;;14.50;6.60;;;;;;;;;;6221743;23;20017;-73
2021/10/05 13:57:12;;;;;;;15.25;6.05;;;;;;;;;;6187711;23;20015;-73
2021/10/05 14:00:16;;;;;;;9.23;5.97;;;;;;;;;;6222629;23;20017;-73
2021/10/05 14:03:21;;;;;;;15.80;6.50;;;;;;;;;;6204407;23;20441;-74
2021/10/05 14:06:25;;;;;;;10.95;6.32;;;;;;;;;;6222515;23;20036;-74
2021/10/05 14:09:29;;;;;;;10.52;6.20;;;;;;;;;;6222935;23;20024;-74
2021/10/05 14:12:34;;;;;;;8.80;5.60;;;;;;;;;;6223326;23;20012;-73
2021/10/05 14:15:39;;;;;;;6.63;4.65;;;;;;;;;;6223432;23;20314;-74
2021/10/05 14:18:43;;;;;;;6.30;5.38;;;;;;;;;;6205022;23;20020;-75
2021/10/05 14:21:48;;;;;;;11.57;6.05;;;;;;;;;;6223349;23;20013;-75
2021/10/05 14:24:53;;;;;;;14.77;6.45;;;;;;;;;;6205117;23;20016;-73
2021/10/05 14:27:57;;;;;;;11.82;5.82;;;;;;;;;;6204444;23;20020;-71
2021/10/05 14:31:02;;;;;;;9.68;5.32;;;;;;;;;;6222646;23;20028;-73
2021/10/05 14:34:07;;;;;;;8.45;5.18;;;;;;;;;;6222321;23;20326;-74
2021/10/05 14:37:11;;;;;;;9.88;5.82;;;;;;;;;;6222288;23;20016;-74
2021/10/05 14:40:16;;;;;;;11.82;5.65;;;;;;;;;;6222236;23;20433;-75
2021/10/05 14:43:20;;;;;;;16.02;7.07;;;;;;;;;;6222555;23;20042;-74
2021/10/05 14:46:25;;;;;;;17.55;8.88;;;;;;;;;;6222592;23;20008;-75
2021/10/05 14:49:30;;;;;;;33.08;9.77;;;;;;;;;;6222551;23;20024;-74
2021/10/05 14:52:34;;;;;;;23.50;8.20;;;;;;;;;;6222431;23;20017;-74
2021/10/05 14:55:39;;;;;;;22.15;9.55;;;;;;;;;;6203972;23;20463;-74
2021/10/05 14:58:43;;;;;;;23.70;9.80;;;;;;;;;;6222581;23;20016;-73
2021/10/05 15:01:47;;;;;;;18.88;9.90;;;;;;;;;;6222607;23;20009;-77
2021/10/05 15:04:52;;;;;;;19.65;9.48;;;;;;;;;;6222432;23;20438;-73
2021/10/05 15:07:56;;;;;;;20.08;9.25;;;;;;;;;;6222417;23;20015;-76
2021/10/05 15:11:01;;;;;;;19.45;10.25;;;;;;;;;;6222569;23;20028;-71
2021/10/05 15:14:05;;;;;;;21.80;9.15;;;;;;;;;;6222184;23;20023;-71
2021/10/05 15:17:09;;;;;;;21.42;9.80;;;;;;;;;;6204107;23;20013;-71
2021/10/05 15:20:14;;;;;;;22.83;10.55;;;;;;;;;;6222450;23;20023;-72
2021/10/05 15:23:22;;;;;;;22.33;10.30;;;;;;;;;;6222478;23;20040;-71
2021/10/05 15:26:28;;;;;;;30.35;11.60;;;;;;;;;;6222362;23;20019;-70
2021/10/05 15:29:32;;;;;;;21.42;11.15;;;;;;;;;;6222201;23;20032;-71
2021/10/05 15:32:39;;;;;;;19.70;9.95;;;;;;;;;;6222357;23;20063;-72
2021/10/05 15:35:43;;;;;;;16.17;10.68;;;;;;;;;;6203966;23;20024;-71
2021/10/05 15:38:48;;;;;;;19.30;9.80;;;;;;;;;;6222321;23;20345;-69
2021/10/05 15:41:52;;;;;;;25.98;11.40;;;;;;;;;;6222311;23;20017;-73
2021/10/05 15:44:57;;;;;;;26.38;11.70;;;;;;;;;;6199587;23;20376;-71
2021/10/05 15:48:01;;;;;;;19.73;11.00;;;;;;;;;;6216392;23;20039;-75
2021/10/05 15:51:14;;;;;;;19.98;10.38;;;;;;;;;;6217378;23;20032;-72
2021/10/05 15:54:20;;;;;;;24.52;12.60;;;;;;;;;;6205565;23;20016;-75
2021/10/05 15:57:24;;;;;;;21.25;12.25;;;;;;;;;;6223831;23;20336;-73
2021/10/05 16:00:29;;;;;;;18.80;10.50;;;;;;;;;;6223819;23;20420;-73
2021/10/05 16:03:33;;;;;;;23.05;11.95;;;;;;;;;;6223904;23;20019;-72
2021/10/05 16:06:38;;;;;;;19.48;12.23;;;;;;;;;;6223913;23;20020;-72
2021/10/05 16:09:43;;;;;;;26.08;13.10;;;;;;;;;;6223704;23;20027;-73
2021/10/05 16:12:47;;;;;;;21.38;11.18;;;;;;;;;;6222786;23;20019;-73
2021/10/05 16:15:51;;;;;;;17.85;10.73;;;;;;;;;;6223215;23;20027;-75
2021/10/05 16:18:56;;;;;;;20.02;9.60;;;;;;;;;;6223501;23;20023;-74
2021/10/05 16:22:00;;;;;;;19.60;10.95;;;;;;;;;;6224011;23;20013;-74
2021/10/05 16:25:05;;;;;;;20.95;12.80;;;;;;;;;;6223955;23;20024;-74
2021/10/05 16:28:10;;;;;;;19.92;12.23;;;;;;;;;;6223610;23;20036;-75
2021/10/05 16:31:14;;;;;;;23.58;12.60;;;;;;;;;;6223480;23;20031;-72
2021/10/05 16:34:18;;;;;;;25.52;11.60;;;;;;;;;;6223561;23;20337;-73
2021/10/05 16:37:22;;;;;;;21.98;12.32;;;;;;;;;;6205002;23;20024;-69
2021/10/05 16:40:27;;;;;;;25.83;13.43;;;;;;;;;;6223294;23;20016;-69
2021/10/05 16:43:31;;;;;;;23.48;14.07;;;;;;;;;;6204715;23;20043;-72
2021/10/05 16:46:35;;;;;;;26.05;14.80;;;;;;;;;;6201307;23;20016;-69
2021/10/05 16:49:40;;;;;;;29.80;14.02;;;;;;;;;;6203562;23;20048;-69
2021/10/05 16:52:44;;;;;;;26.02;14.35;;;;;;;;;;6204473;23;20047;-71
2021/10/05 16:55:48;;;;;;;23.67;15.13;;;;;;;;;;6222568;23;20024;-71
2021/10/05 16:58:53;;;;;;;24.17;14.95;;;;;;;;;;6204699;23;20023;-71
2021/10/05 17:02:00;;;;;;;23.40;13.73;;;;;;;;;;6223160;23;20019;-71
2021/10/05 17:05:05;;;;;;;26.70;14.30;;;;;;;;;;6223396;23;20072;-74
2021/10/05 17:08:10;;;;;;;23.73;13.32;;;;;;;;;;6223253;23;20019;-70
2021/10/05 17:11:14;;;;;;;24.80;12.65;;;;;;;;;;6223187;23;20126;-72
2021/10/05 17:14:19;;;;;;;20.30;12.32;;;;;;;;;;6223153;23;20011;-74
2021/10/05 17:17:24;;;;;;;17.02;11.52;;;;;;;;;;6221575;23;20023;-77
2021/10/05 17:20:28;;;;;;;24.08;13.18;;;;;;;;;;6187090;23;20071;-75
2021/10/05 17:23:33;;;;;;;21.65;12.30;;;;;;;;;;6222563;23;20020;-70
2021/10/05 17:26:38;;;;;;;27.20;14.60;;;;;;;;;;6222811;23;20016;-70
2021/10/05 17:29:42;;;;;;;23.10;12.07;;;;;;;;;;6221554;23;20127;-70
2021/10/05 17:32:46;;;;;;;26.10;13.10;;;;;;;;;;6223938;23;20024;-70
2021/10/05 17:35:51;;;;;;;21.63;12.98;;;;;;;;;;6222579;23;20020;-71
2021/10/05 17:38:55;;;;;;;19.40;11.68;;;;;;;;;;6222783;23;20026;-70
2021/10/05 17:42:00;;;;;;;18.15;11.75;;;;;;;;;;6222807;23;20020;-70
2021/10/05 17:45:07;;;;;;;25.88;13.48;;;;;;;;;;6222701;23;20019;-70
2021/10/05 17:48:12;;;;;;;27.95;14.68;;;;;;;;;;6222839;23;20459;-71
2021/10/05 17:51:17;;;;;;;26.10;11.88;;;;;;;;;;6215745;23;20080;-69
2021/10/05 17:54:21;;;;;;;19.77;11.55;;;;;;;;;;6222884;23;20020;-70
2021/10/05 17:57:26;;;;;;;22.42;12.35;;;;;;;;;;6222611;23;20064;-70
2021/10/05 18:00:33;;;;;;;23.13;12.82;;;;;;;;;;6222848;23;20023;-70
2021/10/05 18:03:37;;;;;;;20.25;12.15;;;;;;;;;;6222717;23;20016;-71
2021/10/05 18:06:42;;;;;;;19.30;12.30;;;;;;;;;;6204352;23;20023;-71